createdAt,value
2023-07-25T00:00:37.514Z,100397.94
2023-07-25T00:03:09.402Z,100400.84
2023-07-25T00:05:40.945Z,100402.03
2023-07-25T00:08:12.502Z,100400.81
2023-07-25T00:10:44.024Z,100403.72
2023-07-25T00:13:15.975Z,100397.06
2023-07-25T00:15:47.504Z,100392.81
2023-07-25T00:18:19.100Z,100402.34
2023-07-25T00:20:50.738Z,100404.41
2023-07-25T00:23:22.533Z,100406.28
2023-07-25T00:25:54.164Z,100401.84
2023-07-25T00:28:25.816Z,100404.75
2023-07-25T00:30:57.454Z,100402.88
2023-07-25T00:33:29.030Z,100405.78
2023-07-25T00:36:00.564Z,100403.06
2023-07-25T00:38:32.157Z,100392.63
2023-07-25T00:41:03.680Z,100395.88
2023-07-25T00:43:35.261Z,100398.78
2023-07-25T00:46:06.841Z,100398.47
2023-07-25T00:48:38.595Z,100404.25
2023-07-25T00:51:10.151Z,100402.06
2023-07-25T00:53:42.770Z,100399.19
2023-07-25T00:56:15.170Z,100404.13
2023-07-25T00:58:47.898Z,100404.13
2023-07-25T01:01:19.557Z,100406.19
2023-07-25T01:03:54.509Z,100403.47
2023-07-25T01:06:26.276Z,100408.06
2023-07-25T01:08:58.582Z,100403.47
2023-07-25T01:11:30.367Z,100396.66
2023-07-25T01:14:02.331Z,100399.03
2023-07-25T01:16:35.290Z,100401.28
2023-07-25T01:19:08.134Z,100402.13
2023-07-25T01:21:39.816Z,100400.56
2023-07-25T01:24:11.468Z,100407.06
2023-07-25T01:26:43.140Z,100405.88
2023-07-25T01:29:14.652Z,100407.91
2023-07-25T01:31:46.198Z,100404.31
2023-07-25T01:34:17.743Z,100410.44
2023-07-25T01:36:49.306Z,100405.34
2023-07-25T01:39:20.798Z,100408.75
2023-07-25T01:41:52.390Z,100407.91
2023-07-25T01:44:23.928Z,100406.19
2023-07-25T01:46:58.188Z,100417.28
2023-07-25T01:49:29.789Z,100418.81
2023-07-25T01:52:01.362Z,100409.78
2023-07-25T01:54:32.883Z,100410.13
2023-07-25T01:57:04.736Z,100412.84
2023-07-25T01:59:36.364Z,100416.06
2023-07-25T02:02:08.261Z,100421.91
2023-07-25T02:04:39.784Z,100425.13
2023-07-25T02:07:11.318Z,100429.41
2023-07-25T02:09:42.887Z,100428.38
2023-07-25T02:12:14.421Z,100419.84
2023-07-25T02:14:45.925Z,100414.75
2023-07-25T02:17:20.536Z,100429.22
2023-07-25T02:19:52.160Z,100427.53
2023-07-25T02:22:23.724Z,100426.41
2023-07-25T02:24:55.257Z,100429.59
2023-07-25T02:27:26.919Z,100426.84
2023-07-25T02:29:58.432Z,100430.94
2023-07-25T02:32:29.993Z,100432.09
2023-07-25T02:35:01.484Z,100432.41
2023-07-25T02:37:33.073Z,100434.56
2023-07-25T02:40:05.069Z,100438.22
2023-07-25T02:42:36.808Z,100450.13
2023-07-25T02:45:08.625Z,100431.59
2023-07-25T02:47:40.267Z,100440.41
2023-07-25T02:50:11.821Z,100435.41
2023-07-25T02:52:43.459Z,100441.19
2023-07-25T02:55:15.084Z,100436.38
2023-07-25T02:57:46.655Z,100430.56
2023-07-25T03:00:18.262Z,100433.44
2023-07-25T03:02:49.856Z,100440.59
2023-07-25T03:05:21.516Z,100438.03
2023-07-25T03:07:53.090Z,100435.44
2023-07-25T03:10:24.625Z,100429.78
2023-07-25T03:12:56.215Z,100432.31
2023-07-25T03:15:27.744Z,100430.63
2023-07-25T03:17:59.401Z,100429.09
2023-07-25T03:20:31.083Z,100424.28
2023-07-25T03:23:02.655Z,100429.19
2023-07-25T03:25:34.201Z,100430.91
2023-07-25T03:28:05.818Z,100429.88
2023-07-25T03:30:37.485Z,100430.22
2023-07-25T03:33:09.179Z,100425.75
2023-07-25T03:35:40.828Z,100426.94
2023-07-25T03:38:12.563Z,100435.56
2023-07-25T03:40:44.145Z,100434.06
2023-07-25T03:43:15.657Z,100432.38
2023-07-25T03:45:47.313Z,100428.13
2023-07-25T03:48:18.974Z,100424.91
2023-07-25T03:50:50.543Z,100424.78
2023-07-25T03:53:22.144Z,100429.19
2023-07-25T03:55:53.724Z,100443.66
2023-07-25T03:58:25.252Z,100437.34
2023-07-25T04:00:56.806Z,100438.19
2023-07-25T04:03:28.549Z,100449.16
2023-07-25T04:06:00.532Z,100442.34
2023-07-25T04:08:32.107Z,100435.22
2023-07-25T04:11:03.629Z,100436.44
2023-07-25T04:13:35.185Z,100436.84
2023-07-25T04:16:06.807Z,100436.72
2023-07-25T04:18:38.359Z,100434.34
2023-07-25T04:21:09.867Z,100439.66
2023-07-25T04:23:41.479Z,100436.28
2023-07-25T04:26:13.050Z,100435.81
2023-07-25T04:28:44.676Z,100442.47
2023-07-25T04:31:17.023Z,100440.44
2023-07-25T04:33:48.676Z,100433.50
2023-07-25T04:36:20.383Z,100440.31
2023-07-25T04:38:51.993Z,100452.78
2023-07-25T04:41:23.878Z,100436.84
2023-07-25T04:43:55.431Z,100435.38
2023-07-25T04:46:27.001Z,100436.91
2023-07-25T04:48:58.657Z,100434.84
2023-07-25T04:51:30.488Z,100441.03
2023-07-25T04:54:02.314Z,100437.59
2023-07-25T04:56:33.933Z,100444.44
2023-07-25T04:59:05.496Z,100430.66
2023-07-25T05:01:37.031Z,100436.28
2023-07-25T05:04:09.064Z,100443.97
2023-07-25T05:06:40.634Z,100459.34
2023-07-25T05:09:12.315Z,100455.06
2023-07-25T05:11:43.817Z,100453.44
2023-07-25T05:14:15.413Z,100458.44
2023-07-25T05:16:46.925Z,100465.97
2023-07-25T05:19:18.558Z,100453.38
2023-07-25T05:21:50.127Z,100455.66
2023-07-25T05:24:21.764Z,100458.56
2023-07-25T05:26:53.297Z,100459.91
2023-07-25T05:29:24.951Z,100454.28
2023-07-25T05:31:56.530Z,100446.09
2023-07-25T05:34:28.153Z,100455.13
2023-07-25T05:36:59.821Z,100449.66
2023-07-25T05:39:31.378Z,100455.66
2023-07-25T05:42:03.293Z,100458.22
2023-07-25T05:44:34.805Z,100462.47
2023-07-25T05:47:06.756Z,100469.63
2023-07-25T05:49:38.384Z,100474.09
2023-07-25T05:52:09.907Z,100463.50
2023-07-25T05:54:41.481Z,100465.53
2023-07-25T05:57:13.247Z,100468.78
2023-07-25T05:59:45.098Z,100469.81
2023-07-25T06:02:17.786Z,100469.13
2023-07-25T06:04:49.388Z,100465.88
2023-07-25T06:07:23.729Z,100471.47
2023-07-25T06:09:55.667Z,100461.25
2023-07-25T06:12:27.452Z,100469.75
2023-07-25T06:14:59.107Z,100479.66
2023-07-25T06:17:30.717Z,100486.69
2023-07-25T06:20:02.299Z,100485.69
2023-07-25T06:22:35.975Z,100487.72
2023-07-25T06:25:09.215Z,100479.19
2023-07-25T06:27:40.939Z,100472.88
2023-07-25T06:30:12.802Z,100468.44
2023-07-25T06:32:44.422Z,100459.75
2023-07-25T06:35:16.272Z,100468.94
2023-07-25T06:37:47.805Z,100471.50
2023-07-25T06:40:19.565Z,100459.41
2023-07-25T06:42:51.117Z,100460.56
2023-07-25T06:45:22.712Z,100472.00
2023-07-25T06:47:54.444Z,100472.16
2023-07-25T06:50:26.122Z,100460.38
2023-07-25T06:52:57.683Z,100469.75
2023-07-25T06:55:29.188Z,100473.84
2023-07-25T06:58:00.734Z,100474.84
2023-07-25T07:00:32.299Z,100463.94
2023-07-25T07:03:06.159Z,100477.06
2023-07-25T07:05:37.958Z,100475.75
2023-07-25T07:08:09.636Z,100473.69
2023-07-25T07:10:41.259Z,100474.22
2023-07-25T07:13:12.847Z,100478.31
2023-07-25T07:15:49.818Z,100478.84
2023-07-25T07:18:24.490Z,100491.63
2023-07-25T07:20:56.084Z,100487.38
2023-07-25T07:23:27.787Z,100488.72
2023-07-25T07:25:59.363Z,100492.63
2023-07-25T07:28:31.311Z,100488.28
2023-07-25T07:31:03.023Z,100494.00
2023-07-25T07:33:34.863Z,100498.03
2023-07-25T07:36:06.729Z,100500.25
2023-07-25T07:38:38.426Z,100501.22
2023-07-25T07:41:09.966Z,100508.25
2023-07-25T07:43:41.598Z,100507.56
2023-07-25T07:46:13.146Z,100504.56
2023-07-25T07:48:44.839Z,100511.97
2023-07-25T07:51:16.625Z,100502.44
2023-07-25T07:53:48.247Z,100507.34
2023-07-25T07:56:20.440Z,100515.47
2023-07-25T07:58:52.131Z,100510.41
2023-07-25T08:01:24.923Z,100513.19
2023-07-25T08:03:56.612Z,100512.47
2023-07-25T08:06:29.278Z,100508.22
2023-07-25T08:09:00.936Z,100513.31
2023-07-25T08:11:32.461Z,100513.53
2023-07-25T08:14:04.288Z,100512.88
2023-07-25T08:16:36.001Z,100524.25
2023-07-25T08:19:07.678Z,100529.75
2023-07-25T08:21:39.803Z,100529.13
2023-07-25T08:24:11.552Z,100529.63
2023-07-25T08:26:43.181Z,100532.44
2023-07-25T08:29:15.118Z,100532.91
2023-07-25T08:31:46.810Z,100516.91
2023-07-25T08:34:18.650Z,100525.13
2023-07-25T08:36:50.304Z,100532.34
2023-07-25T08:39:22.137Z,100532.47
2023-07-25T08:41:54.686Z,100537.31
2023-07-25T08:44:27.901Z,100534.00
2023-07-25T08:47:03.076Z,100525.53
2023-07-25T08:49:37.166Z,100523.44
2023-07-25T08:52:09.659Z,100526.50
2023-07-25T08:54:44.691Z,100529.56
2023-07-25T08:57:21.954Z,100529.13
2023-07-25T08:59:54.959Z,100537.13
2023-07-25T09:02:27.257Z,100537.59
2023-07-25T09:04:59.140Z,100530.66
2023-07-25T09:07:30.709Z,100542.78
2023-07-25T09:10:03.410Z,100545.19
2023-07-25T09:12:34.998Z,100544.91
2023-07-25T09:15:07.141Z,100553.38
2023-07-25T09:17:38.777Z,100543.03
2023-07-25T09:20:11.009Z,100561.94
2023-07-25T09:22:48.158Z,100559.72
2023-07-25T09:25:19.696Z,100560.88
2023-07-25T09:27:55.339Z,100564.00
2023-07-25T09:30:30.960Z,100558.41
2023-07-25T09:33:02.699Z,100546.25
2023-07-25T09:35:34.335Z,100557.06
2023-07-25T09:38:06.385Z,100567.72
2023-07-25T09:40:39.029Z,100570.97
2023-07-25T09:43:21.929Z,100562.09
2023-07-25T09:45:54.525Z,100560.66
2023-07-25T09:48:26.161Z,100570.50
2023-07-25T09:50:58.014Z,100568.59
2023-07-25T09:53:30.976Z,100568.97
2023-07-25T09:56:03.374Z,100566.66
2023-07-25T09:58:34.900Z,100553.59
2023-07-25T10:01:07.208Z,100544.13
2023-07-25T10:03:39.567Z,100546.47
2023-07-25T10:06:13.132Z,100549.38
2023-07-25T10:08:45.395Z,100549.56
2023-07-25T10:11:17.462Z,100552.47
2023-07-25T10:13:51.598Z,100549.88
2023-07-25T10:16:23.674Z,100555.31
2023-07-25T10:18:58.478Z,100557.34
2023-07-25T10:21:47.393Z,100548.13
2023-07-25T10:24:21.145Z,100543.38
2023-07-25T10:26:54.673Z,100548.00
2023-07-25T10:29:38.286Z,100550.69
2023-07-25T10:32:17.785Z,100555.88
2023-07-25T10:35:05.481Z,100553.69
2023-07-25T10:37:43.476Z,100562.31
2023-07-25T10:40:17.456Z,100559.56
2023-07-25T10:45:29.891Z,100554.22
2023-07-25T10:48:02.076Z,100548.41
2023-07-25T10:50:46.270Z,100546.09
2023-07-25T10:53:22.738Z,100553.13
2023-07-25T10:56:09.674Z,100557.50
2023-07-25T10:59:01.898Z,100553.13
2023-07-25T11:01:45.041Z,100547.81
2023-07-25T11:04:22.600Z,100550.94
2023-07-25T11:07:11.373Z,100549.13
2023-07-25T11:09:44.835Z,100544.50
2023-07-25T11:12:24.045Z,100532.97
2023-07-25T11:14:55.825Z,100539.69
2023-07-25T11:17:30.767Z,100533.66
2023-07-25T11:20:17.388Z,100531.66
2023-07-25T11:23:00.611Z,100526.47
2023-07-25T11:25:32.270Z,100523.78
2023-07-25T11:28:06.945Z,100527.53
2023-07-25T11:30:53.586Z,100531.25
2023-07-25T11:33:27.510Z,100529.81
2023-07-25T11:35:59.160Z,100540.19
2023-07-25T11:38:30.929Z,100536.81
2023-07-25T11:41:03.105Z,100528.16
2023-07-25T11:43:35.793Z,100533.94
2023-07-25T11:46:07.764Z,100535.97
2023-07-25T11:48:39.401Z,100539.50
2023-07-25T11:51:11.283Z,100527.09
2023-07-25T11:53:44.319Z,100539.34
2023-07-25T11:56:16.289Z,100548.38
2023-07-25T11:58:51.102Z,100548.84
2023-07-25T12:01:28.929Z,100545.81
2023-07-25T12:04:04.061Z,100535.34
2023-07-25T12:06:36.134Z,100548.00
2023-07-25T12:09:07.984Z,100541.84
2023-07-25T12:11:45.816Z,100550.31
2023-07-25T12:14:17.384Z,100558.28
2023-07-25T12:16:49.138Z,100562.91
2023-07-25T12:19:22.203Z,100552.16
2023-07-25T12:22:05.463Z,100563.44
2023-07-25T12:24:43.986Z,100561.78
2023-07-25T12:27:18.153Z,100566.34
2023-07-25T12:29:49.760Z,100567.47
2023-07-25T12:32:21.384Z,100569.00
2023-07-25T12:35:01.009Z,100566.84
2023-07-25T12:37:33.897Z,100583.75
2023-07-25T12:40:06.263Z,100564.41
2023-07-25T12:42:37.830Z,100577.16
2023-07-25T12:45:11.353Z,100569.41
2023-07-25T12:47:43.366Z,100585.56
2023-07-25T12:50:15.198Z,100581.41
2023-07-25T12:52:46.808Z,100583.50
2023-07-25T12:55:19.623Z,100579.13
2023-07-25T12:57:51.618Z,100599.19
2023-07-25T13:00:24.691Z,100589.19
2023-07-25T13:02:58.004Z,100588.91
2023-07-25T13:05:29.886Z,100598.78
2023-07-25T13:08:01.449Z,100599.06
2023-07-25T13:10:33.727Z,100601.75
2023-07-25T13:13:05.478Z,100587.41
2023-07-25T13:15:37.432Z,100592.91
2023-07-25T13:18:09.141Z,100590.09
2023-07-25T13:20:40.879Z,100593.66
2023-07-25T13:23:13.861Z,100600.34
2023-07-25T13:25:46.131Z,100587.56
2023-07-25T13:28:17.838Z,100597.13
2023-07-25T13:30:49.649Z,100602.03
2023-07-25T13:33:21.332Z,100591.63
2023-07-25T13:35:52.945Z,100591.09
2023-07-25T13:38:24.541Z,100593.09
2023-07-25T13:40:56.238Z,100592.69
2023-07-25T13:43:27.840Z,100597.00
2023-07-25T13:46:00.961Z,100592.78
2023-07-25T13:48:34.152Z,100600.53
2023-07-25T13:51:05.802Z,100603.28
2023-07-25T13:53:37.377Z,100606.28
2023-07-25T13:56:09.039Z,100607.91
2023-07-25T13:58:40.617Z,100610.72
2023-07-25T14:01:12.273Z,100607.53
2023-07-25T14:03:43.874Z,100607.75
2023-07-25T14:06:15.449Z,100607.06
2023-07-25T14:08:47.034Z,100595.41
2023-07-25T14:11:18.637Z,100610.94
2023-07-25T14:13:51.579Z,100606.69
2023-07-25T14:16:23.260Z,100601.66
2023-07-25T14:18:55.166Z,100611.16
2023-07-25T14:21:26.756Z,100617.75
2023-07-25T14:23:58.326Z,100612.63
2023-07-25T14:26:30.448Z,100614.13
2023-07-25T14:29:04.659Z,100619.00
2023-07-25T14:31:36.673Z,100632.78
2023-07-25T14:34:08.461Z,100620.69
2023-07-25T14:36:40.070Z,100641.50
2023-07-25T14:39:11.816Z,100630.97
2023-07-25T14:41:43.457Z,100643.22
2023-07-25T14:44:15.050Z,100637.91
2023-07-25T14:46:46.711Z,100648.28
2023-07-25T14:49:18.440Z,100653.31
2023-07-25T14:51:50.134Z,100648.41
2023-07-25T14:54:21.739Z,100657.09
2023-07-25T14:56:53.334Z,100656.13
2023-07-25T14:59:24.998Z,100654.94
2023-07-25T15:01:56.731Z,100647.56
2023-07-25T15:04:28.289Z,100653.44
2023-07-25T15:07:00.208Z,100646.78
2023-07-25T15:09:31.794Z,100650.09
2023-07-25T15:12:03.720Z,100659.56
2023-07-25T15:14:35.356Z,100658.84
2023-07-25T15:17:07.059Z,100649.72
2023-07-25T15:19:38.696Z,100649.25
2023-07-25T15:22:10.333Z,100651.47
2023-07-25T15:24:43.286Z,100658.25
2023-07-25T15:27:15.001Z,100656.44
2023-07-25T15:29:46.820Z,100646.66
2023-07-25T15:32:18.490Z,100659.41
2023-07-25T15:34:50.272Z,100662.25
2023-07-25T15:37:21.937Z,100670.19
2023-07-25T15:39:54.873Z,100667.19
2023-07-25T15:42:26.656Z,100673.66
2023-07-25T15:44:58.513Z,100673.66
2023-07-25T15:47:30.271Z,100658.28
2023-07-25T15:50:02.029Z,100662.47
2023-07-25T15:52:33.771Z,100681.59
2023-07-25T15:55:05.881Z,100683.66
2023-07-25T15:57:37.590Z,100673.47
2023-07-25T16:00:10.306Z,100678.41
2023-07-25T16:02:42.130Z,100684.56
2023-07-25T16:05:14.119Z,100674.44
2023-07-25T16:07:46.053Z,100672.66
2023-07-25T16:10:17.760Z,100677.41
2023-07-25T16:12:49.485Z,100683.69
2023-07-25T16:15:21.127Z,100669.34
2023-07-25T16:17:52.828Z,100682.69
2023-07-25T16:20:24.511Z,100679.31
2023-07-25T16:22:56.158Z,100678.94
2023-07-25T16:25:27.887Z,100679.91
2023-07-25T16:27:59.502Z,100683.78
2023-07-25T16:30:31.103Z,100664.28
2023-07-25T16:33:02.946Z,100689.06
2023-07-25T16:35:34.536Z,100687.44
2023-07-25T16:38:06.296Z,100685.41
2023-07-25T16:40:38.039Z,100678.75
2023-07-25T16:43:09.741Z,100693.03
2023-07-25T16:45:41.383Z,100691.44
2023-07-25T16:48:13.059Z,100692.38
2023-07-25T16:50:44.600Z,100695.41
2023-07-25T16:53:16.268Z,100694.81
2023-07-25T16:55:47.814Z,100696.16
2023-07-25T16:58:19.475Z,100699.94
2023-07-25T17:00:52.417Z,100705.13
2023-07-25T17:03:25.130Z,100704.25
2023-07-25T17:05:56.989Z,100708.91
2023-07-25T17:08:28.553Z,100714.00
2023-07-25T17:11:07.837Z,100700.28
2023-07-25T17:13:39.631Z,100700.28
2023-07-25T17:16:11.321Z,100700.75
2023-07-25T17:18:43.006Z,100710.28
2023-07-25T17:21:18.395Z,100710.16
2023-07-25T17:23:55.211Z,100710.84
2023-07-25T17:26:26.874Z,100712.91
2023-07-25T17:28:59.109Z,100702.50
2023-07-25T17:31:31.059Z,100716.75
2023-07-25T17:34:03.423Z,100720.25
2023-07-25T17:36:35.143Z,100715.59
2023-07-25T17:39:06.810Z,100720.63
2023-07-25T17:41:38.592Z,100721.63
2023-07-25T17:44:10.330Z,100719.78
2023-07-25T17:46:41.963Z,100716.34
2023-07-25T17:49:13.561Z,100726.66
2023-07-25T17:51:45.274Z,100722.88
2023-07-25T17:54:17.002Z,100723.59
2023-07-25T17:56:49.083Z,100733.38
2023-07-25T17:59:20.652Z,100723.91
2023-07-25T18:01:52.313Z,100728.41
2023-07-25T18:04:23.991Z,100740.19
2023-07-25T18:06:55.931Z,100718.44
2023-07-25T18:09:28.113Z,100728.94
2023-07-25T18:11:59.768Z,100736.47
2023-07-25T18:14:33.773Z,100729.66
2023-07-25T18:17:07.631Z,100730.19
2023-07-25T18:19:39.693Z,100727.69
2023-07-25T18:22:11.231Z,100734.56
2023-07-25T18:24:43.045Z,100730.50
2023-07-25T18:27:14.669Z,100732.06
2023-07-25T18:29:46.410Z,100736.88
2023-07-25T18:32:18.033Z,100739.81
2023-07-25T18:34:49.931Z,100742.56
2023-07-25T18:37:21.588Z,100744.97
2023-07-25T18:39:53.346Z,100746.66
2023-07-25T18:42:24.988Z,100749.25
2023-07-25T18:44:56.629Z,100741.69
2023-07-25T18:47:34.926Z,100745.59
2023-07-25T18:50:07.853Z,100749.34
2023-07-25T18:52:39.502Z,100752.09
2023-07-25T18:55:11.198Z,100744.91
2023-07-25T18:57:42.865Z,100751.97
2023-07-25T19:00:14.804Z,100748.25
2023-07-25T19:02:46.733Z,100751.00
2023-07-25T19:05:18.592Z,100760.22
2023-07-25T19:07:50.291Z,100757.84
2023-07-25T19:10:22.017Z,100765.38
2023-07-25T19:12:53.557Z,100767.28
2023-07-25T19:15:25.217Z,100771.06
2023-07-25T19:17:56.931Z,100774.31
2023-07-25T19:20:28.829Z,100773.84
2023-07-25T19:23:07.856Z,100767.34
2023-07-25T19:25:47.189Z,100776.75
2023-07-25T19:28:18.797Z,100774.19
2023-07-25T19:30:50.502Z,100779.69
2023-07-25T19:33:22.724Z,100784.31
2023-07-25T19:35:56.148Z,100784.97
2023-07-25T19:38:29.059Z,100781.06
2023-07-25T19:41:00.796Z,100780.34
2023-07-25T19:43:33.314Z,100777.78
2023-07-25T19:46:05.272Z,100778.50
2023-07-25T19:48:37.159Z,100788.41
2023-07-25T19:51:13.280Z,100787.56
2023-07-25T19:53:45.068Z,100790.81
2023-07-25T19:56:16.800Z,100791.50
2023-07-25T19:58:49.070Z,100792.69
2023-07-25T20:01:20.872Z,100788.25
2023-07-25T20:03:52.695Z,100794.41
2023-07-25T20:06:24.464Z,100794.41
2023-07-25T20:08:56.165Z,100795.06
2023-07-25T20:11:27.898Z,100797.13
2023-07-25T20:13:59.699Z,100800.22
2023-07-25T20:16:31.816Z,100793.19
2023-07-25T20:19:03.957Z,100788.75
2023-07-25T20:21:35.665Z,100792.69
2023-07-25T20:24:12.459Z,100798.47
2023-07-25T20:26:44.238Z,100793.19
2023-07-25T20:29:16.016Z,100801.38
2023-07-25T20:31:47.546Z,100796.25
2023-07-25T20:34:19.320Z,100801.88
2023-07-25T20:36:50.996Z,100798.44
2023-07-25T20:39:22.678Z,100798.81
2023-07-25T20:41:54.309Z,100807.84
2023-07-25T20:44:25.953Z,100801.34
2023-07-25T20:46:57.536Z,100801.34
2023-07-25T20:49:29.257Z,100813.13
2023-07-25T20:52:00.890Z,100809.03
2023-07-25T20:54:32.536Z,100807.16
2023-07-25T20:57:04.266Z,100810.09
2023-07-25T20:59:35.887Z,100817.22
2023-07-25T21:02:07.620Z,100816.56
2023-07-25T21:04:39.300Z,100820.28
2023-07-25T21:07:10.946Z,100820.81
2023-07-25T21:09:42.761Z,100828.63
2023-07-25T21:12:14.457Z,100826.75
2023-07-25T21:14:46.263Z,100820.25
2023-07-25T21:17:17.870Z,100830.53
2023-07-25T21:19:49.625Z,100839.78
2023-07-25T21:22:21.260Z,100823.75
2023-07-25T21:24:53.278Z,100832.97
2023-07-25T21:27:25.010Z,100820.47
2023-07-25T21:29:56.770Z,100826.75
2023-07-25T21:32:28.441Z,100834.56
2023-07-25T21:35:00.364Z,100834.72
2023-07-25T21:37:32.087Z,100844.94
2023-07-25T21:40:04.090Z,100842.22
2023-07-25T21:42:35.694Z,100844.75
2023-07-25T21:45:08.028Z,100843.22
2023-07-25T21:47:39.675Z,100848.75
2023-07-25T21:50:12.990Z,100848.56
2023-07-25T21:52:44.640Z,100844.53
2023-07-25T21:55:16.299Z,100851.03
2023-07-25T21:57:47.899Z,100842.66
2023-07-25T22:00:19.560Z,100844.03
2023-07-25T22:02:53.042Z,100855.47
2023-07-25T22:05:24.808Z,100846.13
2023-07-25T22:07:56.599Z,100856.19
2023-07-25T22:10:28.333Z,100854.31
2023-07-25T22:13:00.174Z,100861.59
2023-07-25T22:15:32.118Z,100853.47
2023-07-25T22:18:04.144Z,100859.06
2023-07-25T22:20:50.768Z,100849.09
2023-07-25T22:23:23.712Z,100853.81
2023-07-25T22:26:02.857Z,100856.84
2023-07-25T22:28:35.729Z,100852.34
2023-07-25T22:31:07.490Z,100849.94
2023-07-25T22:33:41.419Z,100854.28
2023-07-25T22:36:13.114Z,100852.44
2023-07-25T22:38:44.849Z,100856.91
2023-07-25T22:41:16.644Z,100851.78
2023-07-25T22:43:48.334Z,100853.34
2023-07-25T22:46:20.162Z,100857.28
2023-07-25T22:48:51.942Z,100859.72
2023-07-25T22:51:23.930Z,100860.34
2023-07-25T22:53:55.577Z,100860.97
2023-07-25T22:56:27.254Z,100868.97
2023-07-25T22:58:58.822Z,100858.84
2023-07-25T23:01:30.412Z,100856.75
2023-07-25T23:04:02.203Z,100860.63
2023-07-25T23:06:34.124Z,100854.16
2023-07-25T23:09:06.228Z,100856.69
2023-07-25T23:11:37.860Z,100859.41
2023-07-25T23:14:09.561Z,100850.50
2023-07-25T23:16:41.172Z,100858.47
2023-07-25T23:19:12.843Z,100853.00
2023-07-25T23:21:44.549Z,100855.72
2023-07-25T23:24:16.466Z,100852.44
2023-07-25T23:26:48.289Z,100858.22
2023-07-25T23:29:19.977Z,100855.75
2023-07-25T23:31:51.639Z,100858.81
2023-07-25T23:34:29.016Z,100855.75
2023-07-25T23:37:00.992Z,100851.34
2023-07-25T23:39:32.642Z,100858.81
2023-07-25T23:42:04.798Z,100861.38
2023-07-25T23:44:36.658Z,100870.56
2023-07-25T23:47:08.326Z,100870.47
2023-07-25T23:49:40.093Z,100866.44
2023-07-25T23:52:11.652Z,100862.13
2023-07-25T23:54:43.340Z,100871.88
2023-07-25T23:57:15.081Z,100861.13
2023-07-25T23:59:47.027Z,100873.50
